createdAt,value
2023-01-17T08:55:25.632Z,95313.81
2023-01-17T08:57:52.429Z,95309.00
2023-01-17T09:00:19.911Z,95306.41
2023-01-17T09:02:46.551Z,95308.69
2023-01-17T09:05:14.056Z,95313.19
2023-01-17T09:07:41.339Z,95318.88
2023-01-17T09:10:09.529Z,95328.25
2023-01-17T09:12:37.438Z,95323.00
2023-01-17T09:15:05.578Z,95331.88
2023-01-17T09:17:32.341Z,95326.06
2023-01-17T09:19:59.943Z,95323.94
2023-01-17T09:22:27.708Z,95329.91
2023-01-17T09:24:54.797Z,95333.22
2023-01-17T09:27:22.191Z,95331.09
2023-01-17T09:29:49.515Z,95335.91
2023-01-17T09:32:17.925Z,95325.59
2023-01-17T09:34:45.441Z,95331.56
2023-01-17T09:37:12.893Z,95333.97
2023-01-17T09:39:40.193Z,95335.91
2023-01-17T09:42:33.542Z,95331.97
2023-01-17T09:45:01.300Z,95331.69
2023-01-17T09:47:59.677Z,95325.66
2023-01-17T09:51:01.136Z,95335.59
2023-01-17T09:53:32.450Z,95339.34
2023-01-17T09:56:15.632Z,95340.63
2023-01-17T09:58:58.040Z,95344.72
2023-01-17T10:01:26.532Z,95345.09
2023-01-17T10:04:15.301Z,95353.38
2023-01-17T10:07:10.495Z,95349.44
2023-01-17T10:09:43.910Z,95345.22
2023-01-17T10:12:40.319Z,95351.34
2023-01-17T10:15:25.663Z,95350.56
2023-01-17T10:18:21.709Z,95352.13
2023-01-17T10:21:11.828Z,95352.72
2023-01-17T10:23:50.300Z,95349.56
2023-01-17T10:26:28.049Z,95353.25
2023-01-17T10:29:03.559Z,95353.75
2023-01-17T10:31:45.714Z,95343.44
2023-01-17T10:34:29.921Z,95353.81
2023-01-17T10:37:06.557Z,95353.25
2023-01-17T10:39:35.904Z,95361.78
2023-01-17T10:42:13.530Z,95365.56
2023-01-17T10:44:50.936Z,95361.31
2023-01-17T10:47:28.497Z,95361.31
2023-01-17T10:49:59.036Z,95366.94
2023-01-17T10:52:57.272Z,95364.84
2023-01-17T10:55:48.578Z,95362.72
2023-01-17T10:58:15.956Z,95352.38
2023-01-17T11:00:47.044Z,95348.69
2023-01-17T11:03:18.093Z,95354.06
2023-01-17T11:05:45.644Z,95357.28
2023-01-17T11:08:15.201Z,95361.09
2023-01-17T11:11:04.940Z,95359.25
2023-01-17T11:13:38.637Z,95353.09
2023-01-17T11:16:06.765Z,95347.03
2023-01-17T11:18:38.324Z,95352.19
2023-01-17T11:21:22.116Z,95346.16
2023-01-17T11:23:57.502Z,95348.56
2023-01-17T11:26:33.655Z,95341.88
2023-01-17T11:29:37.255Z,95336.53
2023-01-17T11:32:22.809Z,95336.06
2023-01-17T11:35:21.128Z,95338.47
2023-01-17T11:37:49.846Z,95353.13
2023-01-17T11:40:24.882Z,95353.72
2023-01-17T11:43:11.409Z,95345.00
2023-01-17T11:45:41.370Z,95343.97
2023-01-17T11:48:08.857Z,95345.69
2023-01-17T11:50:41.113Z,95362.34
2023-01-17T11:53:20.106Z,95354.81
2023-01-17T11:56:06.528Z,95355.56
2023-01-17T11:58:37.934Z,95366.16
2023-01-17T12:01:17.319Z,95370.25
2023-01-17T12:03:58.455Z,95381.78
2023-01-17T12:06:51.481Z,95396.19
2023-01-17T12:09:40.650Z,95383.66
2023-01-17T12:12:38.055Z,95385.22
2023-01-17T12:15:18.181Z,95368.97
2023-01-17T12:18:15.754Z,95367.44
2023-01-17T12:21:01.561Z,63001.84
2023-01-17T12:23:58.466Z,63001.84
2023-01-17T12:26:51.238Z,63001.84
2023-01-17T12:29:43.152Z,63001.84
2023-01-17T12:32:31.791Z,63001.84
2023-01-17T12:35:20.132Z,63001.84
2023-01-17T12:38:23.863Z,63001.84
2023-01-17T12:41:06.668Z,63001.84
2023-01-17T12:43:57.524Z,63001.84
2023-01-17T12:46:39.011Z,63001.84
2023-01-17T12:49:28.828Z,63001.84
2023-01-17T12:52:07.360Z,63001.84
2023-01-17T12:54:41.104Z,63001.84
2023-01-17T12:57:14.043Z,63001.84
2023-01-17T12:59:58.399Z,63001.84
2023-01-17T13:02:50.026Z,63001.84
2023-01-17T13:05:42.232Z,63001.84
2023-01-17T13:08:28.020Z,63001.84
2023-01-17T13:11:29.138Z,63001.84
2023-01-17T13:13:58.192Z,63001.84
2023-01-17T13:16:29.892Z,63001.84
2023-01-17T13:19:07.031Z,63001.84
2023-01-17T13:21:35.937Z,63001.84
2023-01-17T13:24:24.931Z,63001.84
2023-01-17T13:26:58.108Z,63001.84
2023-01-17T13:29:49.593Z,63001.84
2023-01-17T13:32:47.878Z,63001.84
2023-01-17T13:35:36.091Z,63001.84
2023-01-17T13:38:34.980Z,63001.84
2023-01-17T13:41:02.482Z,63001.84
2023-01-17T13:43:37.848Z,63001.84
2023-01-17T13:46:05.105Z,63001.84
2023-01-17T13:48:41.237Z,63001.84
2023-01-17T13:51:12.190Z,63001.84
2023-01-17T13:53:39.704Z,63001.84
2023-01-17T13:56:18.878Z,63001.84
2023-01-17T13:58:54.992Z,63001.84
2023-01-17T14:01:25.450Z,63001.84
2023-01-17T14:03:53.112Z,63001.84
2023-01-17T14:06:41.207Z,63001.84
2023-01-17T14:09:07.900Z,63001.84
2023-01-17T14:11:51.919Z,63001.84
2023-01-17T14:14:41.723Z,63001.84
2023-01-17T14:17:16.137Z,63001.84
2023-01-17T14:19:47.529Z,63001.84
2023-01-17T14:22:19.890Z,63001.84
2023-01-17T14:25:10.473Z,63001.84
2023-01-17T14:27:43.153Z,63001.84
2023-01-17T14:30:25.929Z,63001.84
2023-01-17T14:33:02.330Z,63001.84
2023-01-17T14:35:41.466Z,63001.84
2023-01-17T14:38:20.539Z,63001.84
2023-01-17T14:40:59.535Z,63001.84
2023-01-17T14:43:28.778Z,63001.84
2023-01-17T14:46:22.901Z,63001.84
2023-01-17T14:48:51.025Z,63001.84
2023-01-17T14:51:23.659Z,63001.84
2023-01-17T14:53:59.264Z,63001.84
2023-01-17T14:56:28.746Z,63001.84
2023-01-17T14:59:31.891Z,63001.84
2023-01-17T15:02:08.040Z,63001.84
2023-01-17T15:04:39.997Z,63001.84
2023-01-17T15:07:07.777Z,63001.84
2023-01-17T15:09:38.868Z,63001.84
2023-01-17T15:12:10.527Z,63001.84
2023-01-17T15:14:41.800Z,63001.84
2023-01-17T15:17:20.221Z,63001.84
2023-01-17T15:19:52.907Z,63001.84
2023-01-17T15:22:21.196Z,63001.84
2023-01-17T15:24:49.304Z,63001.84
2023-01-17T15:27:17.527Z,63001.84
2023-01-17T15:29:46.180Z,63001.84
2023-01-17T15:32:25.455Z,63001.84
2023-01-17T15:34:52.651Z,63001.84
2023-01-17T15:37:40.063Z,63001.84
2023-01-17T15:40:19.979Z,63001.84
2023-01-17T15:42:50.951Z,63001.84
2023-01-17T15:45:22.559Z,63001.84
2023-01-17T15:47:49.544Z,63001.84
2023-01-17T15:50:28.856Z,63001.84
2023-01-17T15:53:01.030Z,63001.84
2023-01-17T15:55:38.247Z,63001.84
2023-01-17T15:58:21.649Z,63001.84
2023-01-17T16:00:48.656Z,63001.84
2023-01-17T16:03:24.468Z,63001.84
2023-01-17T16:05:53.196Z,63001.84
2023-01-17T16:08:38.656Z,63001.84
2023-01-17T16:11:07.197Z,63001.84
2023-01-17T16:13:42.342Z,63001.84
2023-01-17T16:16:20.562Z,63001.84
2023-01-17T16:18:48.427Z,63001.84
2023-01-17T16:21:21.989Z,63001.84
2023-01-17T16:23:49.247Z,63001.84
2023-01-17T16:26:16.511Z,63001.84
2023-01-17T16:28:43.195Z,63001.84
2023-01-17T16:31:10.773Z,63001.84
2023-01-17T16:33:37.495Z,63001.84
2023-01-17T16:36:04.910Z,63001.84
2023-01-17T16:38:32.309Z,63001.84
2023-01-17T16:41:00.527Z,63001.84
2023-01-17T16:43:27.480Z,63001.84
2023-01-17T16:45:55.699Z,63001.84
2023-01-17T16:48:22.684Z,63001.84
2023-01-17T16:50:52.391Z,63001.84
2023-01-17T16:53:28.692Z,63001.84
2023-01-17T16:55:58.682Z,63001.84
2023-01-17T16:58:25.626Z,63001.84
2023-01-17T17:00:52.676Z,63001.84
2023-01-17T17:03:22.761Z,63001.84
2023-01-17T17:05:57.768Z,63001.84
2023-01-17T17:08:27.263Z,63001.84
2023-01-17T17:10:53.909Z,63001.84
2023-01-17T17:13:20.629Z,63001.84
2023-01-17T17:15:47.377Z,63001.84
2023-01-17T17:18:15.879Z,63001.84
2023-01-17T17:20:43.501Z,63001.84
2023-01-17T17:23:10.811Z,63001.84
2023-01-17T17:25:37.809Z,63001.84
2023-01-17T17:28:05.491Z,63001.84
2023-01-17T17:30:32.381Z,63001.84
2023-01-17T17:32:59.011Z,63001.84
2023-01-17T17:35:25.683Z,63001.84
2023-01-17T17:37:52.691Z,63001.84
2023-01-17T17:40:19.470Z,63001.84
2023-01-17T17:42:46.016Z,63001.84
2023-01-17T17:45:13.719Z,63001.84
2023-01-17T17:47:40.283Z,63001.84
2023-01-17T17:50:07.473Z,63001.84
2023-01-17T17:52:34.018Z,63001.84
2023-01-17T17:55:00.736Z,63001.84
2023-01-17T17:57:27.542Z,63001.84
2023-01-17T17:59:56.828Z,63001.84
2023-01-17T18:02:23.463Z,63001.84
2023-01-17T18:04:50.337Z,63001.84
2023-01-17T18:07:17.004Z,63001.84
2023-01-17T18:09:43.613Z,63001.84
2023-01-17T18:12:10.302Z,63001.84
2023-01-17T18:14:36.964Z,63001.84
2023-01-17T18:17:03.605Z,63001.84
2023-01-17T18:19:30.169Z,63001.84
2023-01-17T18:21:56.875Z,63001.84
2023-01-17T18:24:24.768Z,63001.84
2023-01-17T18:26:54.073Z,63001.84
2023-01-17T18:29:22.323Z,63001.84
2023-01-17T18:31:52.990Z,63001.84
2023-01-17T18:34:24.332Z,63001.84
2023-01-17T18:36:52.130Z,63001.84
2023-01-17T18:39:24.710Z,63001.84
2023-01-17T18:41:51.468Z,63001.84
2023-01-17T18:44:21.992Z,63001.84
2023-01-17T18:46:50.423Z,63001.84
2023-01-17T18:49:19.605Z,63001.84
2023-01-17T18:51:50.974Z,63001.84
2023-01-17T18:54:19.059Z,63001.84
2023-01-17T18:56:45.721Z,63001.84
2023-01-17T18:59:18.704Z,63001.84
2023-01-17T19:01:45.597Z,63001.84
2023-01-17T19:04:14.126Z,63001.84
2023-01-17T19:06:43.439Z,63001.84
2023-01-17T19:09:12.880Z,63001.84
2023-01-17T19:11:39.873Z,63001.84
2023-01-17T19:14:06.967Z,63001.84
2023-01-17T19:16:36.935Z,63001.84
2023-01-17T19:19:07.068Z,63001.84
2023-01-17T19:21:34.260Z,63001.84
2023-01-17T19:24:01.662Z,63001.84
2023-01-17T19:26:28.608Z,63001.84
2023-01-17T19:28:57.833Z,63001.84
2023-01-17T19:31:29.613Z,63001.84
2023-01-17T19:33:58.503Z,63001.84
2023-01-17T19:36:43.321Z,63001.84
2023-01-17T19:39:10.274Z,63001.84
2023-01-17T19:41:41.443Z,63001.84
2023-01-17T19:44:10.020Z,63001.84
2023-01-17T19:46:38.260Z,63001.84
2023-01-17T19:49:07.610Z,63001.84
2023-01-17T19:51:35.107Z,63001.84
2023-01-17T19:54:04.164Z,63001.84
2023-01-17T19:56:30.986Z,63001.84
2023-01-17T19:59:01.966Z,63001.84
2023-01-17T20:01:31.069Z,63001.84
2023-01-17T20:03:58.728Z,63001.84
2023-01-17T20:06:29.191Z,63001.84
2023-01-17T20:08:56.726Z,63001.84
2023-01-17T20:11:25.434Z,63001.84
2023-01-17T20:13:55.796Z,63001.84
2023-01-17T20:16:24.205Z,63001.84
2023-01-17T20:18:51.804Z,63001.84
2023-01-17T20:21:19.894Z,63001.84
2023-01-17T20:23:49.074Z,63001.84
2023-01-17T20:26:22.468Z,63001.84
2023-01-17T20:28:51.834Z,63001.84
2023-01-17T20:31:24.012Z,63001.84
2023-01-17T20:33:52.890Z,63001.84
2023-01-17T20:36:22.234Z,63001.84
2023-01-17T20:38:49.556Z,63001.84
2023-01-17T20:41:24.788Z,63001.84
2023-01-17T20:43:54.427Z,63001.84
2023-01-17T20:46:23.188Z,63001.84
2023-01-17T20:48:55.506Z,63001.84
2023-01-17T20:51:24.667Z,63001.84
2023-01-17T20:53:53.507Z,63001.84
2023-01-17T20:56:20.246Z,63001.84
2023-01-17T20:58:47.036Z,63001.84
2023-01-17T21:01:19.886Z,63001.84
2023-01-17T21:03:51.248Z,63001.84
2023-01-17T21:06:19.239Z,63001.84
2023-01-17T21:08:46.693Z,63001.84
2023-01-17T21:11:15.430Z,63001.84
2023-01-17T21:13:42.892Z,63001.84
2023-01-17T21:16:11.977Z,63001.84
2023-01-17T21:18:38.686Z,63001.84
2023-01-17T21:21:12.381Z,63001.84
2023-01-17T21:23:39.581Z,63001.84
2023-01-17T21:26:08.060Z,63001.84
2023-01-17T21:28:37.461Z,63001.84
2023-01-17T21:31:18.189Z,63001.84
2023-01-17T21:33:45.425Z,63001.84
2023-01-17T21:36:12.523Z,63001.84
2023-01-17T21:38:39.453Z,63001.84
2023-01-17T21:41:06.612Z,63001.84
2023-01-17T21:43:33.366Z,63001.84
2023-01-17T21:46:05.652Z,63001.84
2023-01-17T21:48:32.501Z,63001.84
2023-01-17T21:51:09.117Z,63001.84
2023-01-17T21:53:37.480Z,63001.84
2023-01-17T21:56:24.783Z,63001.84
2023-01-17T21:58:54.569Z,63001.84
2023-01-17T22:01:23.570Z,63001.84
2023-01-17T22:03:58.839Z,63001.84
2023-01-17T22:06:34.668Z,63001.84
2023-01-17T22:09:01.243Z,63001.84
2023-01-17T22:11:30.485Z,63001.84
2023-01-17T22:13:59.123Z,63001.84
2023-01-17T22:16:26.181Z,63001.84
2023-01-17T22:18:52.784Z,63001.84
2023-01-17T22:21:28.500Z,63001.84
2023-01-17T22:23:56.911Z,63001.84
2023-01-17T22:26:26.637Z,63001.84
2023-01-17T22:28:54.322Z,63001.84
2023-01-17T22:31:24.464Z,63001.84
2023-01-17T22:33:57.081Z,63001.84
2023-01-17T22:36:24.502Z,63001.84
2023-01-17T22:38:51.425Z,63001.84
2023-01-17T22:41:23.940Z,63001.84
2023-01-17T22:43:53.326Z,63001.84
2023-01-17T22:46:25.112Z,63001.84
2023-01-17T22:48:53.138Z,63001.84
2023-01-17T22:51:22.413Z,63001.84
2023-01-17T22:53:58.345Z,63001.84
2023-01-17T22:56:34.389Z,63001.84
2023-01-17T22:59:02.009Z,63001.84
2023-01-17T23:01:31.205Z,63001.84
2023-01-17T23:04:00.822Z,63001.84
2023-01-17T23:06:30.844Z,63001.84
2023-01-17T23:09:01.437Z,63001.84
2023-01-17T23:11:41.114Z,63001.84
2023-01-17T23:14:18.916Z,63001.84
2023-01-17T23:17:05.588Z,63001.84
2023-01-17T23:19:36.621Z,63001.84
2023-01-17T23:22:21.150Z,63001.84
2023-01-17T23:24:51.053Z,63001.84
2023-01-17T23:27:48.213Z,63001.84
2023-01-17T23:30:19.060Z,63001.84
2023-01-17T23:32:49.832Z,63001.84
2023-01-17T23:35:17.774Z,63001.84
2023-01-17T23:38:03.161Z,63001.84
2023-01-17T23:40:32.017Z,63001.84
2023-01-17T23:43:18.341Z,63001.84
2023-01-17T23:45:45.147Z,63001.84
2023-01-17T23:48:12.017Z,63001.84
2023-01-17T23:50:40.882Z,63001.84
2023-01-17T23:53:08.986Z,63001.84
2023-01-17T23:55:37.505Z,63001.84
2023-01-17T23:58:05.587Z,63001.84
